Time;durP1;ratioP1;P1;durP2;ratioP2;P2;SDS_P1;SDS_P2;PMS_P1;PMS_P2;Temp;Humidity;BMP_temperature;BMP_pressure;BME280_temperature;BME280_humidity;BME280_pressure;Samples;Min_cycle;Max_cycle;Signal;HPM_P1;HPM_P2
2021/07/07 00:01:58;;;;;;;11.25;6.82;;;22.40;85.20;;;;;;4900479;29;20107;-80
2021/07/07 00:04:24;;;;;;;11.18;6.65;;;22.30;84.80;;;;;;4917360;29;20462;-79
2021/07/07 00:06:49;;;;;;;11.07;7.03;;;22.30;85.00;;;;;;4917158;29;20037;-79
2021/07/07 00:09:15;;;;;;;8.70;7.25;;;22.30;85.40;;;;;;4917382;29;20422;-79
2021/07/07 00:11:40;;;;;;;12.32;7.93;;;22.30;85.70;;;;;;4917286;29;20032;-79
2021/07/07 00:14:06;;;;;;;9.60;7.93;;;22.30;86.00;;;;;;4916996;29;20036;-79
2021/07/07 00:16:32;;;;;;;9.27;7.85;;;22.20;86.40;;;;;;4899885;29;20035;-79
2021/07/07 00:18:57;;;;;;;8.27;7.47;;;22.20;86.80;;;;;;4917376;29;20418;-79
2021/07/07 00:21:23;;;;;;;11.15;7.78;;;22.20;87.00;;;;;;4917293;29;20035;-79
2021/07/07 00:23:49;;;;;;;9.77;7.80;;;22.10;87.10;;;;;;4922428;29;20063;-79
2021/07/07 00:26:15;;;;;;;9.07;7.30;;;22.20;87.40;;;;;;4920612;29;20054;-78
2021/07/07 00:28:41;;;;;;;8.70;7.00;;;22.10;87.40;;;;;;4917494;29;20032;-79
2021/07/07 00:31:06;;;;;;;9.43;7.32;;;22.00;87.50;;;;;;4899816;29;20179;-78
2021/07/07 00:33:32;;;;;;;9.23;7.43;;;22.00;87.50;;;;;;4916354;29;20115;-78
2021/07/07 00:35:58;;;;;;;11.40;7.10;;;22.00;87.40;;;;;;4916502;29;20354;-78
2021/07/07 00:38:23;;;;;;;8.05;6.80;;;21.90;87.30;;;;;;4916496;29;20031;-78
2021/07/07 00:40:49;;;;;;;8.85;6.80;;;21.90;87.40;;;;;;4916416;29;20020;-75
2021/07/07 00:43:15;;;;;;;8.82;6.10;;;21.90;87.20;;;;;;4916246;29;20443;-74
2021/07/07 00:45:42;;;;;;;8.52;6.13;;;21.80;87.10;;;;;;4916314;29;20039;-74
2021/07/07 00:48:07;;;;;;;7.03;6.25;;;21.80;86.90;;;;;;4916033;29;20102;-74
2021/07/07 00:50:33;;;;;;;7.05;5.57;;;21.80;86.60;;;;;;4916230;29;20028;-75
2021/07/07 00:52:59;;;;;;;8.43;5.88;;;21.80;86.40;;;;;;4899238;29;20028;-75
2021/07/07 00:55:25;;;;;;;6.00;5.40;;;21.70;86.20;;;;;;4916075;29;20052;-74
2021/07/07 00:57:52;;;;;;;6.57;5.45;;;21.70;86.00;;;;;;4916155;29;20016;-74
2021/07/07 01:00:21;;;;;;;8.38;5.10;;;21.70;85.70;;;;;;4916173;29;20036;-75
2021/07/07 01:02:48;;;;;;;5.75;5.13;;;21.70;85.30;;;;;;4916066;29;20024;-78
2021/07/07 01:05:16;;;;;;;5.55;5.00;;;21.70;84.90;;;;;;4916184;29;20028;-78
2021/07/07 01:07:42;;;;;;;6.22;5.45;;;21.70;84.40;;;;;;4916067;29;20103;-78
2021/07/07 01:10:10;;;;;;;5.38;4.88;;;21.70;84.10;;;;;;4916185;29;20382;-79
2021/07/07 01:12:36;;;;;;;5.47;4.78;;;21.60;83.90;;;;;;4916321;29;20507;-79
2021/07/07 01:15:08;;;;;;;5.10;4.60;;;21.70;83.80;;;;;;4916285;29;20032;-79
2021/07/07 01:17:34;;;;;;;6.78;4.85;;;21.60;83.50;;;;;;4916161;29;20103;-80
2021/07/07 01:20:05;;;;;;;6.28;4.72;;;21.70;83.40;;;;;;4916158;29;20051;-79
2021/07/07 01:22:31;;;;;;;4.72;4.32;;;21.70;83.30;;;;;;4916043;29;20107;-79
2021/07/07 01:24:57;;;;;;;5.07;4.50;;;21.70;83.20;;;;;;4916047;29;20555;-79
2021/07/07 01:27:25;;;;;;;7.15;5.07;;;21.70;83.10;;;;;;4915908;29;20028;-79
2021/07/07 01:29:50;;;;;;;6.53;4.90;;;21.70;82.90;;;;;;4916007;29;20028;-79
2021/07/07 01:32:17;;;;;;;7.63;4.75;;;21.70;82.80;;;;;;4915952;29;20032;-79
2021/07/07 01:34:43;;;;;;;8.68;6.88;;;21.60;82.80;;;;;;4915849;29;20036;-79
2021/07/07 01:37:08;;;;;;;5.18;4.68;;;21.70;82.70;;;;;;4915787;29;20020;-79
2021/07/07 01:39:34;;;;;;;5.20;4.43;;;21.70;82.30;;;;;;4915930;29;20028;-78
2021/07/07 01:42:00;;;;;;;4.72;4.32;;;21.60;81.60;;;;;;4915853;29;20020;-79
2021/07/07 01:44:25;;;;;;;5.20;4.70;;;21.60;81.50;;;;;;4915753;29;20475;-78
2021/07/07 01:46:51;;;;;;;5.40;4.90;;;21.60;81.50;;;;;;4915838;29;20030;-78
2021/07/07 01:49:17;;;;;;;6.43;5.10;;;21.60;81.70;;;;;;4915629;29;20107;-78
2021/07/07 01:51:42;;;;;;;8.35;5.30;;;21.60;81.90;;;;;;4915665;29;20040;-78
2021/07/07 01:54:08;;;;;;;6.20;5.60;;;21.70;82.10;;;;;;4915546;29;20845;-78
2021/07/07 01:56:34;;;;;;;5.68;5.05;;;21.70;81.90;;;;;;4915751;29;20111;-78
2021/07/07 01:59:00;;;;;;;7.63;5.20;;;21.70;82.00;;;;;;4916523;29;20024;-78
2021/07/07 02:01:26;;;;;;;7.85;5.38;;;21.70;82.10;;;;;;4919423;29;20107;-78
2021/07/07 02:03:52;;;;;;;8.13;5.65;;;21.60;82.40;;;;;;4919624;29;20032;-79
2021/07/07 02:06:18;;;;;;;10.02;6.45;;;21.60;82.90;;;;;;4919428;29;20031;-79
2021/07/07 02:08:43;;;;;;;10.90;6.07;;;21.60;83.30;;;;;;4934129;29;20032;-79
2021/07/07 02:11:09;;;;;;;9.65;6.47;;;21.60;83.50;;;;;;4902371;29;20118;-78
2021/07/07 02:13:35;;;;;;;10.32;6.65;;;21.60;83.60;;;;;;4919627;29;20093;-79
2021/07/07 02:16:02;;;;;;;7.82;5.75;;;21.60;83.60;;;;;;4919574;29;20079;-78
2021/07/07 02:18:28;;;;;;;7.63;6.10;;;21.60;83.70;;;;;;4919858;29;20047;-79
2021/07/07 02:20:54;;;;;;;7.72;6.18;;;21.60;83.70;;;;;;4919538;29;20462;-79
2021/07/07 02:23:19;;;;;;;9.38;5.90;;;21.60;83.70;;;;;;4919685;29;20034;-79
2021/07/07 02:25:46;;;;;;;6.50;5.80;;;21.60;83.60;;;;;;4920422;29;20024;-79
2021/07/07 02:28:14;;;;;;;14.35;5.85;;;21.70;83.70;;;;;;4926211;29;20024;-79
2021/07/07 02:30:41;;;;;;;10.85;6.15;;;21.80;83.20;;;;;;4924152;29;20024;-79
2021/07/07 02:33:09;;;;;;;6.40;5.68;;;21.80;82.50;;;;;;4919884;29;20307;-79
2021/07/07 02:35:38;;;;;;;9.52;5.80;;;21.80;82.20;;;;;;4919108;29;20482;-78
2021/07/07 02:38:05;;;;;;;7.75;5.72;;;21.80;82.30;;;;;;4918927;29;20024;-78
2021/07/07 02:40:33;;;;;;;8.48;5.97;;;21.80;82.60;;;;;;4918947;29;20466;-78
2021/07/07 02:42:59;;;;;;;8.50;5.57;;;21.80;81.90;;;;;;4918864;29;20032;-79
2021/07/07 02:45:27;;;;;;;8.32;5.78;;;21.80;81.40;;;;;;4918741;29;20032;-79
2021/07/07 02:47:53;;;;;;;10.35;5.03;;;21.70;80.90;;;;;;4918824;29;20086;-78
2021/07/07 02:50:20;;;;;;;5.55;4.97;;;21.70;80.90;;;;;;4918741;29;20102;-79
2021/07/07 02:52:48;;;;;;;7.65;4.90;;;21.70;80.80;;;;;;4918829;29;20036;-78
2021/07/07 02:55:16;;;;;;;5.43;4.93;;;21.70;80.80;;;;;;4918463;29;20053;-79
2021/07/07 02:58:04;;;;;;;6.30;5.20;;;21.70;80.30;;;;;;4918619;29;20309;-79
2021/07/07 03:00:34;;;;;;;6.95;4.88;;;21.70;80.10;;;;;;4918631;29;20031;-79
2021/07/07 03:03:11;;;;;;;6.75;5.28;;;21.70;80.10;;;;;;4918659;29;20024;-79
2021/07/07 03:05:42;;;;;;;7.43;4.57;;;21.70;79.90;;;;;;4918663;29;20035;-79
2021/07/07 03:08:09;;;;;;;7.40;5.18;;;21.80;79.90;;;;;;4901392;29;20035;-80
2021/07/07 03:10:36;;;;;;;6.65;4.70;;;21.90;79.50;;;;;;4918274;29;20040;-79
2021/07/07 03:13:02;;;;;;;5.35;4.82;;;22.00;79.30;;;;;;4918135;29;20032;-78
2021/07/07 03:15:28;;;;;;;6.28;4.68;;;22.10;78.90;;;;;;4918010;29;20489;-78
2021/07/07 03:17:55;;;;;;;5.32;4.53;;;22.10;78.30;;;;;;4918242;29;20028;-79
2021/07/07 03:20:21;;;;;;;5.85;5.20;;;22.10;77.90;;;;;;4901804;29;20024;-78
2021/07/07 03:22:47;;;;;;;5.70;4.85;;;22.10;77.90;;;;;;4917838;29;20148;-79
2021/07/07 03:25:14;;;;;;;6.40;4.70;;;22.10;77.90;;;;;;4917823;29;20039;-79
2021/07/07 03:27:40;;;;;;;5.30;4.68;;;22.10;78.00;;;;;;4917815;29;20020;-79
2021/07/07 03:30:07;;;;;;;7.07;4.55;;;22.20;77.70;;;;;;4932420;29;20085;-79
2021/07/07 03:32:33;;;;;;;4.88;4.47;;;22.30;77.40;;;;;;4917784;29;20106;-79
2021/07/07 03:34:59;;;;;;;5.50;4.78;;;22.40;77.40;;;;;;4917831;29;20538;-79
2021/07/07 03:37:25;;;;;;;5.97;4.75;;;22.60;77.60;;;;;;4917824;29;20027;-79
2021/07/07 03:39:51;;;;;;;4.93;4.20;;;23.20;76.90;;;;;;4917914;29;20040;-77
2021/07/07 03:42:16;;;;;;;4.93;4.43;;;24.00;75.40;;;;;;4917838;29;20032;-78
2021/07/07 03:44:42;;;;;;;6.07;4.35;;;25.00;73.00;;;;;;4900586;29;20028;-78
2021/07/07 03:47:08;;;;;;;7.88;4.55;;;26.10;70.60;;;;;;4917346;29;20032;-78
2021/07/07 03:49:34;;;;;;;5.43;4.07;;;27.30;68.10;;;;;;4917590;29;20028;-78
2021/07/07 03:52:00;;;;;;;4.93;4.22;;;28.10;64.80;;;;;;4917351;29;20032;-74
2021/07/07 03:54:25;;;;;;;5.35;4.18;;;28.50;62.70;;;;;;4917053;29;20099;-74
2021/07/07 03:56:54;;;;;;;5.15;4.30;;;28.80;61.20;;;;;;4916852;29;20114;-74
2021/07/07 03:59:20;;;;;;;4.65;4.25;;;29.40;60.20;;;;;;4916686;29;20048;-74
2021/07/07 04:01:46;;;;;;;4.53;3.85;;;29.90;59.20;;;;;;4916978;29;20024;-74
2021/07/07 04:04:12;;;;;;;5.78;4.93;;;30.30;57.70;;;;;;4916809;29;20024;-73
2021/07/07 04:06:38;;;;;;;4.35;3.85;;;30.50;56.90;;;;;;4916903;29;20071;-73
2021/07/07 04:09:03;;;;;;;4.38;3.97;;;30.70;56.10;;;;;;4916766;29;20083;-73
2021/07/07 04:11:29;;;;;;;4.95;4.40;;;31.10;56.30;;;;;;4916537;29;20028;-74
2021/07/07 04:13:55;;;;;;;7.93;3.92;;;31.50;54.40;;;;;;4899543;29;20497;-75
2021/07/07 04:16:20;;;;;;;4.68;3.78;;;31.60;54.30;;;;;;4916622;29;20103;-74
2021/07/07 04:18:46;;;;;;;4.40;4.00;;;31.80;53.30;;;;;;4899633;29;20111;-74
2021/07/07 04:21:12;;;;;;;4.68;4.30;;;32.20;53.70;;;;;;4916048;29;20039;-73
2021/07/07 04:23:37;;;;;;;3.80;3.50;;;32.80;52.50;;;;;;4916226;29;20475;-74
2021/07/07 04:26:03;;;;;;;6.25;3.90;;;33.30;51.10;;;;;;4916310;29;20024;-74
2021/07/07 04:28:29;;;;;;;3.80;3.50;;;33.30;50.50;;;;;;4916632;29;20031;-76
2021/07/07 04:30:55;;;;;;;7.30;3.95;;;33.60;50.20;;;;;;4916142;29;20024;-75
2021/07/07 04:33:20;;;;;;;4.68;3.90;;;33.80;49.10;;;;;;4916075;29;20483;-75
2021/07/07 04:35:46;;;;;;;4.07;3.78;;;33.90;49.90;;;;;;4915813;29;20458;-75
2021/07/07 04:38:14;;;;;;;3.75;3.50;;;34.40;48.90;;;;;;4915807;29;20021;-75
2021/07/07 04:40:39;;;;;;;7.70;3.75;;;34.70;48.20;;;;;;4915719;29;20028;-75
2021/07/07 04:43:05;;;;;;;4.32;3.72;;;35.10;47.90;;;;;;4915954;29;20044;-80
2021/07/07 04:45:32;;;;;;;5.78;3.42;;;35.80;47.40;;;;;;4916134;29;20024;-80
2021/07/07 04:47:58;;;;;;;4.45;3.53;;;35.80;46.20;;;;;;4916004;29;20032;-82
2021/07/07 04:50:23;;;;;;;4.40;3.97;;;35.20;46.30;;;;;;4915698;29;20047;-80
2021/07/07 04:52:49;;;;;;;7.95;3.92;;;34.40;46.20;;;;;;4916043;29;20024;-81
2021/07/07 04:55:16;;;;;;;4.03;3.65;;;33.80;48.00;;;;;;4898241;29;20052;-81
2021/07/07 04:57:42;;;;;;;4.85;4.43;;;33.40;47.70;;;;;;4915690;29;20046;-79
2021/07/07 05:00:12;;;;;;;5.03;3.90;;;33.50;48.30;;;;;;4915509;29;20478;-81
2021/07/07 05:02:39;;;;;;;5.35;3.60;;;33.50;48.30;;;;;;4915119;29;20466;-81
2021/07/07 05:05:06;;;;;;;5.43;3.78;;;33.00;47.90;;;;;;4915610;29;20043;-81
2021/07/07 05:07:32;;;;;;;4.30;3.90;;;32.00;48.50;;;;;;4915539;29;20031;-81
2021/07/07 05:09:58;;;;;;;4.03;3.67;;;31.00;49.70;;;;;;4915598;29;20032;-80
2021/07/07 05:12:25;;;;;;;4.93;3.60;;;30.00;51.60;;;;;;4915530;29;20056;-80
2021/07/07 05:14:51;;;;;;;9.80;4.20;;;29.20;52.90;;;;;;4897877;29;20028;-81
2021/07/07 05:17:16;;;;;;;6.20;3.85;;;28.70;54.20;;;;;;4915551;29;20020;-79
2021/07/07 05:19:42;;;;;;;4.32;3.92;;;28.10;55.10;;;;;;4914951;29;20036;-81
2021/07/07 05:22:08;;;;;;;5.82;3.92;;;27.60;56.90;;;;;;4915106;29;20462;-79
2021/07/07 05:24:34;;;;;;;5.78;3.85;;;27.10;57.30;;;;;;4914736;29;20113;-80
2021/07/07 05:27:02;;;;;;;6.05;4.40;;;26.90;58.40;;;;;;4914688;29;20028;-80
2021/07/07 05:29:28;;;;;;;7.63;4.28;;;26.90;59.00;;;;;;4914768;29;20115;-81
2021/07/07 05:31:54;;;;;;;5.47;3.83;;;27.00;58.90;;;;;;4915338;29;20176;-80
2021/07/07 05:34:20;;;;;;;5.43;4.20;;;26.80;59.20;;;;;;4914429;29;20028;-80
2021/07/07 05:36:46;;;;;;;7.05;4.22;;;26.70;59.70;;;;;;4914892;29;20063;-80
2021/07/07 05:39:12;;;;;;;5.45;4.32;;;26.50;60.00;;;;;;4914933;29;20035;-80
2021/07/07 05:41:38;;;;;;;4.75;4.18;;;26.60;60.80;;;;;;4915289;29;20028;-81
2021/07/07 05:44:03;;;;;;;7.35;3.90;;;27.00;60.50;;;;;;4914715;29;20028;-80
2021/07/07 05:46:29;;;;;;;5.00;3.40;;;27.10;60.10;;;;;;4915046;29;20103;-79
2021/07/07 05:48:55;;;;;;;3.90;3.60;;;27.30;60.00;;;;;;4917553;29;20147;-79
2021/07/07 05:51:21;;;;;;;6.07;3.83;;;27.60;59.90;;;;;;4922866;29;20048;-80
2021/07/07 05:53:46;;;;;;;16.00;5.18;;;28.00;59.00;;;;;;4922411;29;20051;-80
2021/07/07 05:56:12;;;;;;;6.07;3.50;;;28.20;58.60;;;;;;4919614;29;20035;-80
2021/07/07 05:58:38;;;;;;;6.00;3.97;;;28.40;58.10;;;;;;4915266;29;20028;-80
2021/07/07 06:01:04;;;;;;;20.63;4.35;;;28.40;57.40;;;;;;4922184;29;20042;-80
2021/07/07 06:03:29;;;;;;;4.70;3.60;;;28.60;57.70;;;;;;4934165;29;20024;-80
2021/07/07 06:05:55;;;;;;;4.78;3.97;;;28.70;56.90;;;;;;4934078;29;20059;-79
2021/07/07 06:08:21;;;;;;;4.65;3.47;;;28.60;57.30;;;;;;4933881;29;20414;-78
2021/07/07 06:10:47;;;;;;;3.53;3.22;;;28.60;57.10;;;;;;4916586;29;20028;-80
2021/07/07 06:13:13;;;;;;;5.47;3.90;;;28.40;57.00;;;;;;4933117;29;20470;-80
2021/07/07 06:15:39;;;;;;;6.95;3.55;;;28.20;57.30;;;;;;4933770;29;20370;-80
2021/07/07 06:18:06;;;;;;;4.50;4.00;;;27.90;57.80;;;;;;4933788;29;20024;-79
2021/07/07 06:20:33;;;;;;;5.18;3.90;;;27.70;58.50;;;;;;4934325;29;20015;-80
2021/07/07 06:22:59;;;;;;;5.05;3.70;;;27.80;59.10;;;;;;4934146;29;20051;-80
2021/07/07 06:25:25;;;;;;;4.07;3.72;;;27.90;58.80;;;;;;4933944;29;20410;-80
2021/07/07 06:27:51;;;;;;;6.35;3.78;;;28.10;58.60;;;;;;4933945;29;20091;-80
2021/07/07 06:30:19;;;;;;;8.80;3.45;;;28.30;58.20;;;;;;4934008;29;20803;-80
2021/07/07 06:32:47;;;;;;;4.00;3.70;;;28.40;58.00;;;;;;4934021;29;20446;-78
2021/07/07 06:35:14;;;;;;;5.70;3.78;;;28.70;58.10;;;;;;4933167;29;20028;-78
2021/07/07 06:37:40;;;;;;;4.22;3.83;;;29.70;59.00;;;;;;4933774;29;20016;-79
2021/07/07 06:40:07;;;;;;;4.65;3.55;;;31.40;56.90;;;;;;4934208;29;20542;-80
2021/07/07 06:42:33;;;;;;;7.78;3.28;;;32.80;53.70;;;;;;4934413;29;20106;-81
2021/07/07 06:45:00;;;;;;;3.60;3.30;;;33.80;51.80;;;;;;4934974;29;20123;-87
2021/07/07 06:47:26;;;;;;;3.55;3.22;;;34.40;49.80;;;;;;4937626;29;20027;-82
2021/07/07 06:49:52;;;;;;;4.65;3.17;;;34.90;49.10;;;;;;4936913;29;20020;-81
2021/07/07 06:52:19;;;;;;;7.47;3.55;;;35.50;47.80;;;;;;4937366;29;20457;-81
2021/07/07 06:54:46;;;;;;;3.88;3.58;;;35.40;46.30;;;;;;4936486;29;20541;-79
2021/07/07 06:57:12;;;;;;;5.05;3.60;;;34.70;45.90;;;;;;4936568;29;20032;-76
2021/07/07 06:59:37;;;;;;;9.13;3.83;;;33.60;46.30;;;;;;4936539;29;20401;-77
2021/07/07 07:02:04;;;;;;;3.78;3.47;;;32.60;47.70;;;;;;4936612;29;20027;-77
2021/07/07 07:04:30;;;;;;;4.22;3.60;;;31.80;48.90;;;;;;4936361;29;20564;-77
2021/07/07 07:07:00;;;;;;;5.38;3.63;;;31.30;50.10;;;;;;4936576;29;20110;-77
2021/07/07 07:09:26;;;;;;;4.88;4.03;;;30.80;51.00;;;;;;4936971;29;20394;-83
2021/07/07 07:11:52;;;;;;;7.95;4.18;;;30.40;51.90;;;;;;4920645;29;20450;-84
2021/07/07 07:14:18;;;;;;;9.73;4.07;;;30.20;52.50;;;;;;4938898;29;20031;-85
2021/07/07 07:16:44;;;;;;;5.80;3.80;;;29.80;52.90;;;;;;4937867;29;20087;-85
2021/07/07 07:19:10;;;;;;;9.05;4.13;;;29.40;54.20;;;;;;4938729;29;20024;-84
2021/07/07 07:21:36;;;;;;;7.00;3.40;;;29.30;54.80;;;;;;4938090;29;20024;-85
2021/07/07 07:24:02;;;;;;;7.22;3.70;;;29.30;55.20;;;;;;4937230;29;20459;-85
2021/07/07 07:26:28;;;;;;;3.60;3.30;;;29.40;55.20;;;;;;4938248;29;20062;-85
2021/07/07 07:28:57;;;;;;;9.40;3.70;;;29.30;54.60;;;;;;4936578;29;20471;-80
2021/07/07 07:31:23;;;;;;;5.38;4.15;;;28.90;54.80;;;;;;4935936;29;20446;-80
2021/07/07 07:33:49;;;;;;;3.38;3.13;;;28.50;55.00;;;;;;4934732;29;20115;-78
2021/07/07 07:36:16;;;;;;;3.80;3.30;;;28.30;55.60;;;;;;4935854;29;20375;-77
2021/07/07 07:38:45;;;;;;;8.30;3.63;;;28.20;56.00;;;;;;4936155;29;20089;-76
2021/07/07 07:41:11;;;;;;;4.45;3.45;;;28.10;55.90;;;;;;4935800;29;20030;-77
2021/07/07 07:43:38;;;;;;;6.38;3.50;;;27.90;55.90;;;;;;4935529;29;20027;-77
2021/07/07 07:46:04;;;;;;;7.47;3.72;;;27.60;56.00;;;;;;4936032;29;20041;-77
2021/07/07 07:48:30;;;;;;;4.32;3.67;;;27.50;56.50;;;;;;4934715;29;20426;-76
2021/07/07 07:50:56;;;;;;;6.07;3.50;;;27.60;56.90;;;;;;4935574;29;20015;-77
2021/07/07 07:53:23;;;;;;;11.60;4.20;;;27.80;56.90;;;;;;4935543;29;20031;-77
2021/07/07 07:55:49;;;;;;;7.97;3.50;;;27.80;56.80;;;;;;4935469;29;20158;-79
2021/07/07 07:58:19;;;;;;;7.63;3.58;;;28.00;57.20;;;;;;4935558;29;20110;-78
2021/07/07 08:00:47;;;;;;;11.35;3.70;;;28.30;56.70;;;;;;4934340;29;20023;-78
2021/07/07 08:03:13;;;;;;;8.45;3.78;;;28.40;56.00;;;;;;4935648;29;20015;-76
2021/07/07 08:05:40;;;;;;;6.10;3.30;;;28.50;55.90;;;;;;4935610;29;20024;-77
2021/07/07 08:08:06;;;;;;;4.57;3.20;;;28.90;55.80;;;;;;4934086;29;20382;-77
2021/07/07 08:10:32;;;;;;;7.47;3.60;;;29.30;55.20;;;;;;4934998;29;20032;-76
2021/07/07 08:12:58;;;;;;;5.13;3.40;;;29.70;54.90;;;;;;4918065;29;20035;-77
2021/07/07 08:15:26;;;;;;;9.52;3.70;;;30.10;54.60;;;;;;4935349;29;20034;-77
2021/07/07 08:17:56;;;;;;;6.93;3.75;;;30.50;53.60;;;;;;4935015;29;20039;-79
2021/07/07 08:20:23;;;;;;;5.65;3.25;;;30.70;52.10;;;;;;4935270;29;20020;-77
2021/07/07 08:22:50;;;;;;;7.63;4.00;;;30.50;51.20;;;;;;4934038;29;20023;-77
2021/07/07 08:25:16;;;;;;;12.38;4.10;;;30.30;51.10;;;;;;4935172;29;20024;-78
2021/07/07 08:27:43;;;;;;;5.55;3.63;;;30.10;51.30;;;;;;4935447;29;20031;-77
2021/07/07 08:30:10;;;;;;;7.55;3.78;;;30.00;51.90;;;;;;4935055;29;20032;-77
2021/07/07 08:32:37;;;;;;;6.05;3.63;;;30.10;51.60;;;;;;4935286;29;20035;-79
2021/07/07 08:35:03;;;;;;;4.93;3.80;;;29.90;51.20;;;;;;4934836;29;20043;-78
2021/07/07 08:37:29;;;;;;;6.80;4.40;;;29.70;51.30;;;;;;4934588;29;20092;-78
2021/07/07 08:39:56;;;;;;;12.55;8.77;;;29.80;52.10;;;;;;4934653;29;20058;-78
2021/07/07 08:42:22;;;;;;;10.50;6.28;;;30.20;52.40;;;;;;4934668;29;20024;-79
2021/07/07 08:44:47;;;;;;;10.88;4.35;;;30.50;51.80;;;;;;4934665;29;20080;-79
2021/07/07 08:47:13;;;;;;;7.57;4.70;;;30.50;51.10;;;;;;4934637;29;20039;-79
2021/07/07 08:49:40;;;;;;;10.98;4.93;;;30.50;51.20;;;;;;4934533;29;20039;-81
2021/07/07 08:52:06;;;;;;;13.52;4.97;;;30.40;51.10;;;;;;4933980;29;20031;-79
2021/07/07 08:54:32;;;;;;;10.68;5.65;;;30.50;50.90;;;;;;4934106;29;20079;-79
2021/07/07 08:57:06;;;;;;;14.30;4.65;;;30.80;51.10;;;;;;4933601;29;20055;-77
2021/07/07 08:59:32;;;;;;;6.75;4.32;;;31.20;50.70;;;;;;4933750;29;20380;-79
2021/07/07 09:02:11;;;;;;;9.23;4.80;;;31.40;50.10;;;;;;4933462;29;20028;-78
2021/07/07 09:04:38;;;;;;;9.32;4.72;;;31.40;49.90;;;;;;4933241;29;20079;-79
2021/07/07 09:07:13;;;;;;;5.95;4.10;;;31.10;49.40;;;;;;4933382;29;20020;-78
2021/07/07 09:09:50;;;;;;;7.03;4.00;;;30.70;49.00;;;;;;4933436;29;20023;-80
2021/07/07 09:12:24;;;;;;;5.97;4.00;;;30.50;49.60;;;;;;4933405;29;20023;-79
2021/07/07 09:14:59;;;;;;;10.27;7.15;;;30.40;49.80;;;;;;4916505;29;20463;-78
2021/07/07 09:17:25;;;;;;;46.17;30.65;;;30.10;50.40;;;;;;4933785;29;20031;-79
2021/07/07 09:19:51;;;;;;;5.10;4.60;;;30.10;51.10;;;;;;4933633;29;20023;-79
2021/07/07 09:22:23;;;;;;;7.93;5.50;;;30.20;51.20;;;;;;4932407;29;20020;-77
2021/07/07 09:25:00;;;;;;;6.63;4.00;;;30.30;51.40;;;;;;4933272;29;20020;-79
2021/07/07 09:27:37;;;;;;;5.57;4.05;;;30.30;50.60;;;;;;4933825;29;20062;-78
2021/07/07 09:30:09;;;;;;;5.63;3.90;;;30.10;50.60;;;;;;4932493;29;20498;-78
2021/07/07 09:32:50;;;;;;;11.60;6.63;;;30.00;50.90;;;;;;4932055;29;20063;-78
2021/07/07 09:35:20;;;;;;;26.38;14.25;;;29.90;51.80;;;;;;4932600;29;20398;-77
2021/07/07 09:37:51;;;;;;;10.73;6.40;;;30.00;52.30;;;;;;4933230;29;20139;-78
2021/07/07 09:40:17;;;;;;;9.10;6.60;;;30.30;52.40;;;;;;4932934;29;20103;-77
2021/07/07 09:42:48;;;;;;;6.60;5.38;;;30.50;52.10;;;;;;4932856;29;20478;-78
2021/07/07 09:45:16;;;;;;;4.82;4.13;;;30.90;51.90;;;;;;4933149;29;20032;-78
2021/07/07 09:47:44;;;;;;;18.55;13.00;;;31.30;51.30;;;;;;4932863;29;20039;-77
2021/07/07 09:50:12;;;;;;;10.63;4.10;;;31.50;50.60;;;;;;4933135;29;20115;-78
2021/07/07 09:52:38;;;;;;;6.38;4.00;;;31.50;49.50;;;;;;4933088;29;20028;-79
2021/07/07 09:55:09;;;;;;;8.63;4.32;;;31.30;49.70;;;;;;4870978;29;1829273;-79
2021/07/07 09:57:46;;;;;;;13.15;6.43;;;31.20;50.20;;;;;;4933935;29;20073;-78
2021/07/07 10:00:18;;;;;;;15.68;11.52;;;31.20;50.70;;;;;;4932582;29;20385;-79
2021/07/07 10:02:50;;;;;;;11.50;7.50;;;31.30;50.90;;;;;;4933598;29;20043;-79
2021/07/07 10:05:21;;;;;;;7.78;5.53;;;31.30;50.60;;;;;;4932384;29;20091;-79
2021/07/07 10:07:47;;;;;;;10.30;4.55;;;31.20;50.40;;;;;;4933566;29;20064;-80
2021/07/07 10:10:15;;;;;;;6.05;5.40;;;31.00;50.60;;;;;;4933614;29;20028;-79
2021/07/07 10:12:43;;;;;;;15.98;10.35;;;30.80;51.40;;;;;;4933725;29;20099;-78
2021/07/07 10:15:13;;;;;;;10.93;7.97;;;30.90;51.90;;;;;;4933402;29;20083;-79
2021/07/07 10:17:41;;;;;;;4.82;3.85;;;31.00;51.90;;;;;;4933293;29;20099;-79
2021/07/07 10:20:13;;;;;;;8.90;5.60;;;31.00;51.30;;;;;;4934884;29;20529;-78
2021/07/07 10:22:38;;;;;;;;;;;30.90;51.40;;;;;;4937673;29;20057;-76
2021/07/07 10:25:14;;;;;;;5.72;4.10;;;30.70;51.40;;;;;;4937136;29;19906;-77
2021/07/07 10:27:41;;;;;;;6.22;4.20;;;30.70;51.80;;;;;;4937099;29;20028;-77
2021/07/07 10:30:08;;;;;;;6.20;4.20;;;30.50;51.90;;;;;;4937257;29;20028;-79
2021/07/07 10:32:34;;;;;;;4.40;3.80;;;30.30;52.20;;;;;;4936986;29;20083;-78
2021/07/07 10:35:10;;;;;;;5.60;4.25;;;30.10;52.10;;;;;;4937013;29;20028;-77
2021/07/07 10:37:38;;;;;;;12.27;6.22;;;29.90;51.50;;;;;;4937061;29;20501;-79
2021/07/07 10:40:23;;;;;;;15.85;5.03;;;29.70;52.10;;;;;;4936237;29;20110;-78
2021/07/07 10:42:48;;;;;;;9.65;3.47;;;29.70;53.00;;;;;;4936013;29;20019;-77
2021/07/07 10:45:44;;;;;;;4.28;3.83;;;29.80;52.10;;;;;;4919476;29;20126;-79
2021/07/07 10:48:31;;;;;;;12.35;5.10;;;30.00;52.10;;;;;;4924007;29;20047;-79
2021/07/07 10:51:22;;;;;;;8.07;4.65;;;30.20;51.80;;;;;;4936469;29;20047;-79
2021/07/07 10:53:47;;;;;;;6.90;5.60;;;30.30;51.80;;;;;;4935371;29;20525;-77
2021/07/07 10:56:13;;;;;;;9.25;4.15;;;30.40;52.00;;;;;;4936223;29;20035;-78
2021/07/07 10:58:41;;;;;;;11.15;5.95;;;30.40;51.40;;;;;;4919025;29;20470;-78
2021/07/07 11:01:38;;;;;;;6.80;4.10;;;30.30;50.90;;;;;;4935889;29;20104;-79
2021/07/07 11:04:05;;;;;;;12.15;6.53;;;30.00;50.50;;;;;;4935688;29;20059;-78
2021/07/07 11:06:38;;;;;;;8.43;3.92;;;29.80;51.10;;;;;;4935734;29;20048;-78
2021/07/07 11:09:13;;;;;;;6.03;3.53;;;29.80;51.20;;;;;;4936622;29;20062;-76
2021/07/07 11:11:40;;;;;;;5.35;2.90;;;29.90;51.40;;;;;;4919071;29;20035;-77
2021/07/07 11:14:27;;;;;;;5.78;3.20;;;29.90;51.30;;;;;;4936300;29;20028;-76
2021/07/07 11:17:01;;;;;;;6.97;3.13;;;29.80;50.70;;;;;;4936064;29;20370;-74
2021/07/07 11:19:42;;;;;;;9.30;3.05;;;29.80;50.90;;;;;;4936488;29;20031;-75
2021/07/07 11:22:09;;;;;;;4.15;3.05;;;29.70;51.00;;;;;;4936601;29;20067;-75
2021/07/07 11:24:35;;;;;;;3.75;3.05;;;29.60;51.00;;;;;;4936405;29;20028;-75
2021/07/07 11:27:05;;;;;;;8.23;3.55;;;29.40;51.20;;;;;;4936326;29;20125;-75
2021/07/07 11:29:31;;;;;;;3.72;3.17;;;29.40;51.60;;;;;;4936084;29;20115;-77
2021/07/07 11:31:58;;;;;;;5.97;3.30;;;29.40;51.70;;;;;;4936219;29;20027;-77
2021/07/07 11:34:24;;;;;;;7.28;3.60;;;29.50;51.30;;;;;;4934821;29;20023;-76
2021/07/07 11:36:49;;;;;;;3.83;3.10;;;29.40;51.60;;;;;;4936045;29;20030;-76
2021/07/07 11:39:20;;;;;;;6.20;3.17;;;29.40;51.50;;;;;;4936219;29;20024;-75
2021/07/07 11:42:03;;;;;;;6.00;3.20;;;29.30;51.30;;;;;;4936040;29;20020;-75
2021/07/07 11:44:43;;;;;;;10.20;3.60;;;29.20;51.90;;;;;;4936019;29;20035;-76
2021/07/07 11:47:10;;;;;;;5.45;3.25;;;29.20;52.00;;;;;;4935794;29;20039;-76
2021/07/07 11:49:36;;;;;;;7.15;3.00;;;29.30;52.10;;;;;;4935789;29;20030;-76
2021/07/07 11:52:04;;;;;;;7.00;3.20;;;29.40;51.90;;;;;;4936019;29;20032;-77
2021/07/07 11:54:45;;;;;;;8.00;3.20;;;29.60;51.70;;;;;;4935565;29;20056;-77
2021/07/07 11:57:11;;;;;;;3.45;3.10;;;29.40;51.30;;;;;;4935598;29;20024;-77
2021/07/07 11:59:37;;;;;;;3.05;2.80;;;29.40;51.40;;;;;;4935474;29;20050;-75
2021/07/07 12:02:03;;;;;;;3.70;2.75;;;29.30;51.40;;;;;;4935501;29;20024;-74
2021/07/07 12:04:28;;;;;;;4.22;2.80;;;29.30;51.20;;;;;;4935464;29;20032;-77
2021/07/07 12:06:59;;;;;;;8.07;3.38;;;29.30;51.20;;;;;;4934251;29;20042;-77
2021/07/07 12:09:27;;;;;;;5.53;3.08;;;29.30;51.10;;;;;;4935278;29;20169;-78
2021/07/07 12:12:00;;;;;;;14.35;3.30;;;29.10;51.30;;;;;;4934937;29;20023;-77
2021/07/07 12:14:28;;;;;;;6.43;3.25;;;29.10;52.10;;;;;;4935056;29;20023;-77
2021/07/07 12:16:55;;;;;;;3.38;3.08;;;29.10;52.00;;;;;;4934761;29;20019;-80
2021/07/07 12:19:21;;;;;;;7.45;3.40;;;29.10;52.00;;;;;;4934783;29;20055;-77
2021/07/07 12:21:52;;;;;;;7.60;3.08;;;29.10;51.90;;;;;;4934727;29;20045;-78
2021/07/07 12:24:30;;;;;;;5.28;3.13;;;29.10;52.00;;;;;;4934873;29;20598;-79
2021/07/07 12:27:02;;;;;;;6.93;2.83;;;29.00;52.10;;;;;;4934689;29;20028;-78
2021/07/07 12:29:29;;;;;;;3.38;3.08;;;29.10;52.40;;;;;;4934455;29;20042;-78
2021/07/07 12:32:01;;;;;;;8.02;3.20;;;29.20;52.30;;;;;;4917541;29;20031;-77
2021/07/07 12:34:30;;;;;;;5.10;3.00;;;29.30;52.10;;;;;;4932851;29;20378;-77
2021/07/07 12:36:58;;;;;;;3.33;2.65;;;29.30;52.20;;;;;;4933364;29;20403;-78
2021/07/07 12:39:27;;;;;;;6.35;2.90;;;29.20;51.80;;;;;;4934453;29;20027;-78
2021/07/07 12:42:04;;;;;;;5.63;3.10;;;29.10;52.00;;;;;;4934294;29;20016;-78
2021/07/07 12:44:37;;;;;;;8.10;3.40;;;29.10;52.20;;;;;;4933928;29;20163;-79
2021/07/07 12:47:11;;;;;;;7.20;3.00;;;29.10;52.30;;;;;;4934453;29;20086;-78
2021/07/07 12:49:53;;;;;;;5.78;2.90;;;29.10;52.10;;;;;;4934123;29;20584;-78